x

Cape Suckling - 35 Nm Se Of Kayak Is, Ak (46082) Wave Buoy

11:50am - Mon 22nd Sep 2014 All times are AKDT. -8 hours from GMT.

  • Sig Wave height 7.2ft
  • Peak Period 11s
  • Average Period 6s
  • Wind
    9mph, 11mph gusts
  • Sea Temp 55°f
  • Air Temp 55°f
  • Sea Pressure 1003.4mb
  • Cape Suckling - 35 Nm Se Of Kayak Is, Ak
  • Cape Suckling - 35 Nm Se Of Kayak Is, Ak

More Historic Weather Station data

Upgrade to MSW Pro to gain access to the past 30 days of data for over 8000 Wavebouys and Weather Stations around the globe.

Join Pro

Comparision Forecast

View Surf forecast
   
Mon 09/22 11:50am 7ft 11s 6s 9 11 mph 1003.4mb 55f 55f
10:50am 7.5ft 11s 7s 9 11 mph 1002.5mb 55f 55f
9:50am 7ft 11s 7s 9 11 mph 1001.5mb 55f 55f
8:50am 7.5ft 11s 7s 11 13 mph 1000.3mb 55f 55f
7:50am 8ft 11s 7s 13 16 mph 999.3mb 55f 55f
6:50am 8.5ft 11s 7s 16 18 mph 998.2mb 54f 55f
5:50am 8.5ft 12s 7s 18 20 mph 997mb 54f 55f
4:50am 7ft 11s 6s 18 22 mph 995.8mb 54f 55f
3:50am 8ft 11s 6s 18 22 mph 994.4mb 54f 55f
2:50am 6.5ft 10s 6s 20 27 mph 992.5mb 54f 55f
1:50am 5ft 11s 5s 18 20 mph 990.7mb 54f 55f
12:50am 4ft 9s 5s 11 13 mph 989mb 54f 55f
Sun 09/21 11:50pm 4.5ft 7s 5s 7 9 mph 987.6mb 54f 55f
10:50pm 4.5ft 7s 6s 4
mph
986.3mb 54f 54f
9:50pm 4.5ft 8s 6s 11 13 mph 985.5mb 53f 54f
8:50pm 4.5ft 8s 5s 7 9 mph 985.4mb 53f 53f
7:50pm 4.5ft 8s 5s 11 13 mph 985.7mb 53f 54f
6:50pm 5ft 8s 5s 13 16 mph 986.3mb 54f 54f
5:50pm 5ft 9s 5s 16 20 mph 986.8mb 54f 54f
4:50pm 5.5ft 9s 5s 18 22 mph 988mb 54f 54f
3:50pm 6ft 9s 5s 20 25 mph 988.9mb 55f 53f
2:50pm 5.5ft 9s 5s 20 25 mph 989.9mb 55f 53f
1:50pm 6ft 9s 6s 22 27 mph 991.6mb 55f 53f
12:50pm 5.5ft 9s 5s 22 27 mph 993mb 55f 52f
11:50am 6ft 9s 6s 20 25 mph 994.9mb 55f 53f
10:50am 5ft 10s 6s 16 20 mph 996.8mb 55f 52f
9:50am 6.5ft 10s 7s 13 16 mph 998.5mb 55f 51f
8:50am 6ft 10s 7s 9 11 mph 999.9mb 55f 51f
7:50am 7.5ft 10s 8s 9 11 mph 1000.7mb 54f 51f
6:50am 7ft 10s 8s 9 11 mph 1001.8mb 54f 51f
5:50am 7ft 9s 7s 11
mph
1002.8mb 53f 52f
4:50am 6ft 10s 7s 7
mph
1003.7mb 53f 52f
3:50am 6ft 10s 7s 4 7 mph 1004.6mb 54f 52f
2:50am 5ft 8s 6s 4 7 mph 1005.2mb 54f 53f
1:50am 4.5ft 9s 5s 7
mph
1005.7mb 54f 53f
12:50am 4.5ft 8s 6s 9
mph
1005.9mb 54f 53f
Sat 09/20 11:50pm 5ft 8s 6s 9 11 mph 1006.3mb 54f 53f
10:50pm 5ft 8s 6s 9 11 mph 1006.6mb 54f 53f
9:50pm 5ft 8s 6s 9 11 mph 1006.6mb 54f 53f
8:50pm 4.5ft 8s 6s 11 13 mph 1006.5mb 54f 53f
7:50pm 5ft 9s 6s 13 16 mph 1006.4mb 55f 53f
6:50pm 6ft 8s 7s 11 13 mph 1006.3mb 55f 53f
5:50pm 5.5ft 8s 7s 9 11 mph 1006mb 55f 53f
4:50pm 6ft 9s 6s 4 7 mph 1005.7mb 54f 54f
3:50pm 6ft 9s 6s 7 9 mph 1005.3mb 54f 54f
2:50pm 6ft 9s 6s 9 11 mph 1005mb 54f 53f
1:50pm 6ft 8s 6s 7 9 mph 1004.5mb 54f 52f
12:50pm 7ft 11s 6s 9 11 mph 1004mb 54f 52f
11:50am 7.5ft 6s 6s 9 11 mph 1003.8mb 54f 53f
10:50am 8ft 11s 6s 16 18 mph 1003.3mb 54f 53f
9:50am 8ft 10s 6s 16 20 mph 1003.2mb 54f 53f
8:50am 8.5ft 10s 6s 20 22 mph 1003mb 54f 53f
7:50am 9ft 10s 6s 20 25 mph 1003.2mb 54f 53f
6:50am 9ft 10s 6s 20 25 mph 1003.2mb 54f 53f
5:50am 8.5ft 10s 6s 18 22 mph 1003.4mb 54f 53f
4:50am 9ft 10s 6s 20 25 mph 1003.8mb 54f 52f
3:50am 8.5ft 11s 7s 16 20 mph 1004.1mb 54f 53f
2:50am 8.5ft 9s 7s 9 11 mph 1004.3mb 54f 55f
1:50am 11ft 11s 7s 11 13 mph 1004.6mb 54f 55f
12:50am 9ft 11s 7s 13 16 mph 1004.9mb 53f 55f
Fri 09/19 11:50pm 9.5ft 10s 7s 13 16 mph 1005.1mb 53f 55f
10:50pm 9.5ft 11s 7s 13 18 mph 1004.9mb 53f 55f
9:50pm 10.5ft 8s 7s 16 18 mph 1004.6mb 53f 55f
8:50pm 10.5ft 9s 7s 7 9 mph 1004.1mb 53f 54f
7:50pm 11ft 11s 7s 13 16 mph 1003.6mb 53f 55f
6:50pm 12ft 11s 7s 20 27 mph 1003.2mb 53f 52f
5:50pm 13ft 11s 7s 11
mph
1002.5mb 53f 55f
4:50pm 12ft 11s 7s 13 16 mph 1001.9mb 53f 55f
3:50pm 11ft 10s 7s 13 18 mph 1000.5mb 53f 56f
2:50pm 10ft 10s 6s 18 22 mph 998.4mb 53f 56f
1:50pm 9ft 8s 6s 22 27 mph 996mb 53f 55f
12:50pm 9ft 9s 6s 25 31 mph 993.7mb 53f 55f
11:50am 8.5ft 10s 6s 20 25 mph 991.5mb 52f 54f
10:50am 10ft 9s 6s 11 13 mph 989.7mb 52f 55f
9:50am 11ft 8s 6s 9 11 mph 988.5mb 52f 54f
8:50am 11ft 8s 6s 16 18 mph 987.1mb 52f 54f
7:50am 10ft 9s 6s 13 18 mph 985.9mb 52f 54f
6:50am 11.5ft 8s 6s 25 31 mph 984.8mb 52f 53f
5:50am 12ft 8s 6s 25 29 mph 984.3mb 52f 54f
4:50am 11ft 9s 6s 27 31 mph 983.4mb 52f 53f
3:50am 12.5ft 8s 6s 29 36 mph 982.8mb 52f 53f
2:50am 11.5ft 8s 6s 31 38 mph 982.1mb 52f 54f
1:50am 11ft 8s 6s 25 29 mph 981.4mb 52f 54f
12:50am 11.5ft 8s 6s 29 36 mph 981.4mb 52f 55f
Thu 09/18 11:50pm 11ft 10s 6s 25 29 mph 981.3mb 52f 55f
10:50pm 12.5ft 10s 6s 25 31 mph 981.3mb 52f 54f
9:50pm 14.5ft 9s 7s 31 40 mph 980.6mb 52f 54f